createdAt,value
2019-02-07T00:00:02.794Z,73.19
2019-02-07T00:02:34.833Z,73.11
2019-02-07T00:05:06.979Z,73.05
2019-02-07T00:07:38.636Z,73.17
2019-02-07T00:10:11.683Z,73.69
2019-02-07T00:12:43.043Z,74.85
2019-02-07T00:15:15.167Z,75.95
2019-02-07T00:17:46.816Z,77.02
2019-02-07T00:20:18.754Z,78.59
2019-02-07T00:22:51.103Z,79.81
2019-02-07T00:25:22.428Z,81.65
2019-02-07T00:27:54.341Z,81.89
2019-02-07T00:30:26.161Z,83.21
2019-02-07T00:32:57.557Z,83.71
2019-02-07T00:35:28.948Z,84.32
2019-02-07T00:38:00.497Z,85.05
2019-02-07T00:40:32.007Z,85.47
2019-02-07T00:43:03.398Z,85.80
2019-02-07T00:45:34.620Z,86.32
2019-02-07T00:48:06.474Z,86.64
2019-02-07T00:50:37.861Z,87.21
2019-02-07T00:53:09.619Z,87.74
2019-02-07T00:55:41.109Z,88.33
2019-02-07T00:58:12.652Z,89.70
2019-02-07T01:00:43.964Z,89.93
2019-02-07T01:03:15.415Z,90.16
2019-02-07T01:05:47.461Z,90.73
2019-02-07T01:08:18.916Z,90.97
2019-02-07T01:10:50.364Z,90.88
2019-02-07T01:13:21.899Z,90.66
2019-02-07T01:15:53.301Z,90.72
2019-02-07T01:18:24.927Z,90.42
2019-02-07T01:20:56.414Z,90.47
2019-02-07T01:23:27.688Z,90.46
2019-02-07T01:25:59.195Z,90.46
2019-02-07T01:28:30.493Z,90.61
2019-02-07T01:31:02.040Z,91.15
2019-02-07T01:33:33.559Z,91.36
2019-02-07T01:36:04.891Z,92.29
2019-02-07T01:38:36.320Z,93.04
2019-02-07T01:41:07.465Z,94.49
2019-02-07T01:43:39.927Z,94.81
2019-02-07T01:46:11.257Z,94.87
2019-02-07T01:48:42.613Z,95.45
2019-02-07T01:51:13.999Z,96.05
2019-02-07T01:53:45.338Z,96.05
2019-02-07T01:56:16.787Z,95.86
2019-02-07T01:58:47.986Z,96.02
2019-02-07T02:01:19.247Z,95.89
2019-02-07T02:03:50.489Z,95.76
2019-02-07T02:06:21.812Z,95.96
2019-02-07T02:08:53.466Z,96.32
2019-02-07T02:11:24.828Z,96.45
2019-02-07T02:13:56.230Z,96.66
2019-02-07T02:16:27.571Z,96.71
2019-02-07T02:18:58.900Z,97.35
2019-02-07T02:21:30.319Z,97.78
2019-02-07T02:24:01.658Z,98.44
2019-02-07T02:26:33.071Z,97.78
2019-02-07T02:29:05.180Z,97.17
2019-02-07T02:31:36.705Z,97.17
2019-02-07T02:34:08.016Z,96.72
2019-02-07T02:36:39.283Z,96.44
2019-02-07T02:39:11.595Z,95.95
2019-02-07T02:41:42.951Z,95.78
2019-02-07T02:44:14.252Z,96.11
2019-02-07T02:46:45.667Z,97.27
2019-02-07T02:49:17.296Z,97.62
2019-02-07T02:51:48.670Z,97.75
2019-02-07T02:54:34.496Z,98.32
2019-02-07T02:57:06.013Z,98.71
2019-02-07T02:59:37.255Z,99.89
2019-02-07T03:02:45.769Z,100.00
2019-02-07T03:05:51.545Z,100.00
2019-02-07T03:08:40.555Z,100.00
2019-02-07T03:11:29.510Z,100.00
2019-02-07T03:14:13.971Z,100.00
2019-02-07T03:16:59.423Z,100.00
2019-02-07T03:19:53.081Z,99.99
2019-02-07T03:22:45.933Z,100.00
2019-02-07T03:25:39.012Z,100.00
2019-02-07T03:28:32.193Z,100.00
2019-02-07T03:31:26.079Z,100.00
2019-02-07T03:34:16.565Z,100.00
2019-02-07T03:37:16.094Z,100.00
2019-02-07T03:40:05.290Z,100.00
2019-02-07T03:42:55.551Z,100.00
2019-02-07T03:46:02.268Z,100.00
2019-02-07T03:48:47.099Z,100.00
2019-02-07T03:51:26.503Z,100.00
2019-02-07T03:54:15.372Z,100.00
2019-02-07T03:57:14.761Z,100.00
2019-02-07T04:00:00.677Z,100.00
2019-02-07T04:03:00.628Z,100.00
2019-02-07T04:05:50.099Z,100.00
2019-02-07T04:08:39.523Z,100.00
2019-02-07T04:11:32.676Z,100.00
2019-02-07T04:14:35.285Z,100.00
2019-02-07T04:17:34.540Z,100.00
2019-02-07T04:20:21.203Z,100.00
2019-02-07T04:23:07.258Z,100.00
2019-02-07T04:26:01.379Z,100.00
2019-02-07T04:28:57.837Z,100.00
2019-02-07T04:31:54.192Z,100.00
2019-02-07T04:34:56.493Z,100.00
2019-02-07T04:37:52.284Z,100.00
2019-02-07T04:40:39.635Z,100.00
2019-02-07T04:43:29.753Z,100.00
2019-02-07T04:46:26.620Z,100.00
2019-02-07T04:49:00.373Z,100.00
2019-02-07T04:52:05.789Z,100.00
2019-02-07T04:54:44.521Z,100.00
2019-02-07T04:57:33.854Z,100.00
2019-02-07T05:00:28.846Z,100.00
2019-02-07T05:03:17.774Z,100.00
2019-02-07T05:06:07.862Z,100.00
2019-02-07T05:09:16.432Z,100.00
2019-02-07T05:11:57.577Z,100.00
2019-02-07T05:14:46.565Z,100.00
2019-02-07T05:17:37.081Z,100.00
2019-02-07T05:20:34.406Z,100.00
2019-02-07T05:23:25.491Z,100.00
2019-02-07T05:26:34.005Z,100.00
2019-02-07T05:29:26.005Z,100.00
2019-02-07T05:32:19.453Z,100.00
2019-02-07T05:35:25.152Z,100.00
2019-02-07T05:38:29.266Z,100.00
2019-02-07T05:41:18.192Z,100.00
2019-02-07T05:44:07.145Z,100.00
2019-02-07T05:46:56.135Z,100.00
2019-02-07T05:49:45.532Z,100.00
2019-02-07T05:52:35.141Z,100.00
2019-02-07T05:55:43.168Z,100.00
2019-02-07T05:58:35.905Z,100.00
2019-02-07T06:01:26.213Z,100.00
2019-02-07T06:04:04.243Z,100.00
2019-02-07T06:06:55.046Z,100.00
2019-02-07T06:09:43.771Z,100.00
2019-02-07T06:12:30.362Z,100.00
2019-02-07T06:15:19.734Z,100.00
2019-02-07T06:18:03.747Z,100.00
2019-02-07T06:21:09.177Z,100.00
2019-02-07T06:24:17.789Z,100.00
2019-02-07T06:27:06.824Z,100.00
2019-02-07T06:29:47.549Z,100.00
2019-02-07T06:32:29.302Z,100.00
2019-02-07T06:35:28.852Z,100.00
2019-02-07T06:38:23.209Z,100.00
2019-02-07T06:41:31.800Z,100.00
2019-02-07T06:44:24.012Z,100.00
2019-02-07T06:47:13.838Z,100.00
2019-02-07T06:50:04.280Z,100.00
2019-02-07T06:52:54.303Z,100.00
2019-02-07T06:55:53.402Z,100.00
2019-02-07T06:58:42.311Z,100.00
2019-02-07T07:01:31.431Z,100.00
2019-02-07T07:04:14.740Z,100.00
2019-02-07T07:07:23.171Z,78.58
2019-02-07T07:10:12.073Z,72.51
2019-02-07T07:13:05.129Z,60.71
2019-02-07T07:15:52.609Z,58.88
2019-02-07T07:18:42.260Z,52.22
2019-02-07T07:21:39.308Z,50.29
2019-02-07T07:24:29.743Z,48.41
2019-02-07T07:27:18.846Z,46.07
2019-02-07T07:30:15.183Z,46.32
2019-02-07T07:33:08.045Z,45.47
2019-02-07T07:35:57.165Z,43.88
2019-02-07T07:38:46.205Z,41.85
2019-02-07T07:41:35.403Z,41.03
2019-02-07T07:44:29.202Z,39.07
2019-02-07T07:47:18.256Z,40.26
2019-02-07T07:50:14.752Z,40.95
2019-02-07T07:53:13.362Z,40.37
2019-02-07T07:56:12.866Z,38.48
2019-02-07T07:59:18.401Z,37.83
2019-02-07T08:02:03.892Z,37.62
2019-02-07T08:05:00.412Z,37.42
2019-02-07T08:07:50.569Z,36.31
2019-02-07T08:10:47.078Z,35.39
2019-02-07T08:13:37.555Z,34.34
2019-02-07T08:16:27.734Z,33.21
2019-02-07T08:19:36.311Z,31.93
2019-02-07T08:22:30.154Z,31.34
2019-02-07T08:25:21.122Z,34.65
2019-02-07T08:28:26.820Z,33.25
2019-02-07T08:31:35.559Z,32.04
2019-02-07T08:34:41.811Z,33.19
2019-02-07T08:37:34.969Z,32.68
2019-02-07T08:40:34.410Z,31.59
2019-02-07T08:43:33.164Z,30.87
2019-02-07T08:46:27.623Z,30.71
2019-02-07T08:49:20.959Z,29.69
2019-02-07T08:52:09.791Z,29.38
2019-02-07T08:55:05.309Z,29.84
2019-02-07T08:57:48.331Z,29.60
2019-02-07T09:00:28.384Z,29.85
2019-02-07T09:03:17.526Z,28.17
2019-02-07T09:06:10.872Z,29.50
2019-02-07T09:08:54.360Z,27.56
2019-02-07T09:11:44.582Z,25.99
2019-02-07T09:14:26.886Z,25.41
2019-02-07T09:17:26.707Z,25.19
2019-02-07T09:20:32.883Z,25.91
2019-02-07T09:23:15.152Z,25.48
2019-02-07T09:26:18.050Z,23.54
2019-02-07T09:29:09.030Z,22.67
2019-02-07T09:31:59.763Z,22.48
2019-02-07T09:34:44.909Z,21.83
2019-02-07T09:37:33.832Z,22.98
2019-02-07T09:40:26.513Z,21.74
2019-02-07T09:43:10.501Z,22.00
2019-02-07T09:46:00.042Z,22.19
2019-02-07T09:49:00.053Z,20.74
2019-02-07T09:51:55.488Z,20.79
2019-02-07T09:54:45.099Z,20.25
2019-02-07T09:57:26.547Z,20.39
2019-02-07T10:00:20.484Z,19.98
2019-02-07T10:03:14.828Z,19.38
2019-02-07T10:06:08.036Z,17.96
2019-02-07T10:08:57.465Z,17.74
2019-02-07T10:11:57.041Z,17.62
2019-02-07T10:14:46.435Z,17.54
2019-02-07T10:17:36.870Z,16.97
2019-02-07T10:20:47.589Z,16.43
2019-02-07T10:23:53.109Z,16.41
2019-02-07T10:26:42.313Z,17.37
2019-02-07T10:29:32.653Z,16.02
2019-02-07T10:32:32.045Z,14.85
2019-02-07T10:35:23.100Z,15.07
2019-02-07T10:38:13.750Z,15.43
2019-02-07T10:41:07.084Z,15.88
2019-02-07T10:43:47.165Z,15.69
2019-02-07T10:46:52.985Z,15.91
2019-02-07T10:49:42.737Z,15.60
2019-02-07T10:52:31.773Z,14.96
2019-02-07T10:55:28.076Z,15.99
2019-02-07T10:58:08.086Z,15.35
2019-02-07T11:00:53.752Z,14.69
2019-02-07T11:03:42.639Z,14.22
2019-02-07T11:06:32.873Z,14.80
2019-02-07T11:09:22.424Z,15.44
2019-02-07T11:12:12.840Z,15.03
2019-02-07T11:15:11.099Z,14.73
2019-02-07T11:18:10.733Z,15.49
2019-02-07T11:21:00.292Z,16.83
2019-02-07T11:23:53.508Z,16.18
2019-02-07T11:26:59.553Z,16.60
2019-02-07T11:29:36.417Z,15.67
2019-02-07T11:32:25.802Z,15.70
2019-02-07T11:35:19.104Z,15.66
2019-02-07T11:38:12.471Z,15.35
2019-02-07T11:41:15.100Z,15.18
2019-02-07T11:44:07.542Z,16.35
2019-02-07T11:46:48.821Z,15.66
2019-02-07T11:49:32.635Z,16.16
2019-02-07T11:52:26.357Z,15.29
2019-02-07T11:55:34.898Z,15.12
2019-02-07T11:58:28.488Z,15.48
2019-02-07T12:01:17.537Z,17.89
2019-02-07T12:04:06.371Z,17.47
2019-02-07T12:06:50.891Z,16.55
2019-02-07T12:09:35.666Z,18.18
2019-02-07T12:12:26.160Z,16.20
2019-02-07T12:15:22.519Z,15.54
2019-02-07T12:18:14.178Z,15.77
2019-02-07T12:21:13.990Z,15.37
2019-02-07T12:24:13.279Z,14.79
2019-02-07T12:27:09.530Z,15.38
2019-02-07T12:29:49.590Z,15.68
2019-02-07T12:32:39.786Z,17.48
2019-02-07T12:35:41.544Z,18.56
2019-02-07T12:38:41.944Z,16.44
2019-02-07T12:41:27.869Z,15.91
2019-02-07T12:44:28.335Z,15.38
2019-02-07T12:47:19.183Z,15.73
2019-02-07T12:50:19.831Z,15.76
2019-02-07T12:53:04.249Z,17.86
2019-02-07T12:56:01.249Z,17.65
2019-02-07T12:58:54.559Z,16.82
2019-02-07T13:01:45.206Z,16.83
2019-02-07T13:04:49.716Z,16.43
2019-02-07T13:07:49.526Z,16.06
2019-02-07T13:10:34.625Z,18.17
2019-02-07T13:13:25.742Z,17.50
2019-02-07T13:16:11.781Z,17.47
2019-02-07T13:19:04.943Z,18.36
2019-02-07T13:21:56.726Z,18.07
2019-02-07T13:24:50.303Z,18.03
2019-02-07T13:27:39.463Z,19.04
2019-02-07T13:30:45.186Z,18.60
2019-02-07T13:33:34.576Z,19.54
2019-02-07T13:36:25.277Z,18.43
2019-02-07T13:39:15.537Z,18.68
2019-02-07T13:42:05.816Z,18.79
2019-02-07T13:44:54.850Z,18.48
2019-02-07T13:47:45.395Z,18.10
2019-02-07T13:50:54.195Z,18.61
2019-02-07T13:53:51.133Z,20.35
2019-02-07T13:56:58.885Z,19.96
2019-02-07T13:59:49.411Z,20.83
2019-02-07T14:02:39.621Z,20.18
2019-02-07T14:05:30.544Z,21.54
2019-02-07T14:08:25.371Z,19.85
2019-02-07T14:11:16.763Z,19.58
2019-02-07T14:14:10.497Z,20.61
2019-02-07T14:17:07.205Z,20.65
2019-02-07T14:20:03.334Z,19.58
2019-02-07T14:22:43.631Z,20.41
2019-02-07T14:25:40.709Z,20.52
2019-02-07T14:28:34.190Z,23.04
2019-02-07T14:31:25.180Z,22.90
2019-02-07T14:34:21.619Z,25.38
2019-02-07T14:37:10.645Z,24.98
2019-02-07T14:40:19.365Z,23.54
2019-02-07T14:43:04.114Z,22.41
2019-02-07T14:46:09.846Z,21.34
2019-02-07T14:48:42.078Z,21.38
2019-02-07T14:51:13.563Z,21.19
2019-02-07T14:53:44.992Z,20.82
2019-02-07T14:56:16.820Z,20.60
2019-02-07T14:58:48.685Z,20.39
2019-02-07T15:01:20.463Z,20.63
2019-02-07T15:03:51.874Z,21.62
2019-02-07T15:06:23.525Z,21.03
2019-02-07T15:08:55.760Z,22.88
2019-02-07T15:11:27.425Z,22.79
2019-02-07T15:13:59.657Z,23.52
2019-02-07T15:16:31.243Z,23.22
2019-02-07T15:19:02.734Z,22.85
2019-02-07T15:21:34.256Z,22.82
2019-02-07T15:24:08.315Z,22.92
2019-02-07T15:26:40.137Z,23.56
2019-02-07T15:29:11.805Z,24.38
2019-02-07T15:31:43.531Z,24.71
2019-02-07T15:34:15.233Z,26.16
2019-02-07T15:36:50.331Z,26.63
2019-02-07T15:39:23.449Z,27.44
2019-02-07T15:41:55.800Z,29.57
2019-02-07T15:44:27.975Z,29.73
2019-02-07T15:46:59.759Z,30.42
2019-02-07T15:49:32.097Z,31.74
2019-02-07T15:52:03.952Z,33.05
2019-02-07T15:54:36.158Z,33.42
2019-02-07T15:57:08.007Z,34.14
2019-02-07T15:59:45.965Z,35.25
2019-02-07T16:02:24.622Z,35.93
2019-02-07T16:04:56.941Z,36.28
2019-02-07T16:07:29.700Z,37.04
2019-02-07T16:10:01.816Z,38.70
2019-02-07T16:12:33.488Z,38.90
2019-02-07T16:15:05.612Z,39.87
2019-02-07T16:17:39.218Z,42.03
2019-02-07T16:20:16.061Z,43.45
2019-02-07T16:22:48.451Z,44.24
2019-02-07T16:25:21.230Z,44.29
2019-02-07T16:27:53.973Z,44.77
2019-02-07T16:30:27.551Z,45.89
2019-02-07T16:33:03.862Z,46.83
2019-02-07T16:35:54.540Z,47.54
2019-02-07T16:38:27.084Z,48.86
2019-02-07T16:40:59.467Z,49.43
2019-02-07T16:43:31.821Z,49.32
2019-02-07T16:46:03.942Z,50.57
2019-02-07T16:48:35.997Z,52.20
2019-02-07T16:51:08.401Z,53.48
2019-02-07T16:53:40.660Z,53.55
2019-02-07T16:56:13.464Z,52.71
2019-02-07T16:58:47.743Z,53.11
2019-02-07T17:01:19.556Z,53.44
2019-02-07T17:03:50.991Z,55.56
2019-02-07T17:06:22.721Z,54.10
2019-02-07T17:08:54.766Z,53.35
2019-02-07T17:11:26.287Z,54.30
2019-02-07T17:13:57.824Z,55.57
2019-02-07T17:16:29.746Z,56.47
2019-02-07T17:19:01.740Z,56.84
2019-02-07T17:21:35.499Z,56.92
2019-02-07T17:24:08.233Z,57.79
2019-02-07T17:26:40.560Z,58.56
2019-02-07T17:29:12.312Z,59.47
2019-02-07T17:31:44.341Z,59.81
2019-02-07T17:34:16.495Z,60.29
2019-02-07T17:36:48.888Z,60.87
2019-02-07T17:39:21.653Z,61.33
2019-02-07T17:41:53.424Z,61.81
2019-02-07T17:44:26.212Z,62.21
2019-02-07T17:46:58.762Z,62.71
2019-02-07T17:49:30.767Z,63.06
2019-02-07T17:52:02.717Z,63.16
2019-02-07T17:54:34.785Z,63.81
2019-02-07T17:57:06.988Z,64.08
2019-02-07T17:59:38.562Z,64.94
2019-02-07T18:02:14.327Z,65.12
2019-02-07T18:04:46.788Z,66.11
2019-02-07T18:07:19.586Z,66.78
2019-02-07T18:09:51.585Z,68.62
2019-02-07T18:12:23.232Z,69.03
2019-02-07T18:14:54.949Z,68.85
2019-02-07T18:17:27.136Z,68.30
2019-02-07T18:19:59.344Z,67.88
2019-02-07T18:22:31.117Z,68.28
2019-02-07T18:25:02.905Z,68.61
2019-02-07T18:27:37.551Z,68.69
2019-02-07T18:30:15.003Z,68.58
2019-02-07T18:32:47.158Z,69.17
2019-02-07T18:35:20.062Z,69.55
2019-02-07T18:37:52.086Z,70.00
2019-02-07T18:40:27.948Z,70.73
2019-02-07T18:43:00.212Z,71.01
2019-02-07T18:45:31.687Z,71.34
2019-02-07T18:48:03.612Z,71.43
2019-02-07T18:50:37.446Z,71.66
2019-02-07T18:53:09.802Z,72.09
2019-02-07T18:55:44.148Z,73.02
2019-02-07T18:58:15.992Z,74.30
2019-02-07T19:00:47.462Z,74.81
2019-02-07T19:03:19.430Z,76.46
2019-02-07T19:05:51.176Z,77.58
2019-02-07T19:08:23.536Z,77.62
2019-02-07T19:10:58.977Z,76.69
2019-02-07T19:13:32.139Z,76.24
2019-02-07T19:16:16.657Z,76.24
2019-02-07T19:18:49.211Z,76.71
2019-02-07T19:21:21.894Z,76.36
2019-02-07T19:23:54.597Z,75.90
2019-02-07T19:26:26.989Z,76.10
2019-02-07T19:28:59.946Z,75.50
2019-02-07T19:31:33.139Z,75.64
2019-02-07T19:34:07.984Z,75.21
2019-02-07T19:36:41.434Z,75.48
2019-02-07T19:39:14.029Z,75.58
2019-02-07T19:41:47.395Z,76.39
2019-02-07T19:44:20.493Z,77.53
2019-02-07T19:46:53.823Z,78.79
2019-02-07T19:49:26.472Z,79.75
2019-02-07T19:52:07.965Z,78.54
2019-02-07T19:54:34.434Z,77.77
2019-02-07T19:57:06.568Z,77.86
2019-02-07T19:59:41.898Z,77.99
2019-02-07T20:02:14.428Z,78.27
2019-02-07T20:04:46.964Z,78.60
2019-02-07T20:07:20.045Z,80.25
2019-02-07T20:09:54.235Z,82.70
2019-02-07T20:12:27.138Z,83.81
2019-02-07T20:14:59.790Z,84.74
2019-02-07T20:17:33.887Z,83.69
2019-02-07T20:20:12.525Z,82.76
2019-02-07T20:22:45.458Z,82.01
2019-02-07T20:25:18.271Z,82.13
2019-02-07T20:27:51.815Z,81.96
2019-02-07T20:30:30.744Z,82.41
2019-02-07T20:33:02.959Z,82.70
2019-02-07T20:35:35.643Z,82.31
2019-02-07T20:38:09.047Z,82.24
2019-02-07T20:40:41.581Z,82.57
2019-02-07T20:43:13.955Z,83.00
2019-02-07T20:45:46.220Z,82.54
2019-02-07T20:48:20.040Z,81.92
2019-02-07T20:50:53.348Z,82.06
2019-02-07T20:53:26.094Z,82.23
2019-02-07T20:56:04.402Z,82.32
2019-02-07T20:58:37.568Z,82.91
2019-02-07T21:01:10.868Z,83.61
2019-02-07T21:03:44.122Z,84.09
2019-02-07T21:06:17.293Z,84.91
2019-02-07T21:08:50.323Z,86.84
2019-02-07T21:11:22.710Z,87.91
2019-02-07T21:13:55.095Z,89.12
2019-02-07T21:16:26.741Z,89.92
2019-02-07T21:18:58.742Z,89.90
2019-02-07T21:21:30.594Z,91.38
2019-02-07T21:24:02.231Z,91.44
2019-02-07T21:26:34.594Z,91.99
2019-02-07T21:29:06.899Z,91.92
2019-02-07T21:31:39.772Z,92.25
2019-02-07T21:34:11.355Z,92.85
2019-02-07T21:36:43.492Z,93.52
2019-02-07T21:39:15.132Z,94.44
2019-02-07T21:41:47.604Z,95.38
2019-02-07T21:44:19.218Z,96.29
2019-02-07T21:46:51.265Z,96.63
2019-02-07T21:49:22.993Z,96.96
2019-02-07T21:51:54.660Z,96.99
2019-02-07T21:54:27.074Z,97.67
2019-02-07T21:56:59.340Z,97.67
2019-02-07T21:59:31.462Z,97.82
2019-02-07T22:02:03.321Z,98.55
2019-02-07T22:04:35.896Z,99.23
2019-02-07T22:07:08.089Z,99.58
2019-02-07T22:09:39.696Z,99.85
2019-02-07T22:12:11.595Z,98.48
2019-02-07T22:14:43.682Z,97.21
2019-02-07T22:17:15.730Z,96.49
2019-02-07T22:19:47.620Z,95.46
2019-02-07T22:22:19.430Z,94.68
2019-02-07T22:24:52.014Z,94.23
2019-02-07T22:27:23.581Z,93.45
2019-02-07T22:29:55.522Z,93.17
2019-02-07T22:32:27.182Z,93.39
2019-02-07T22:34:58.781Z,93.84
2019-02-07T22:37:31.039Z,95.18
2019-02-07T22:40:03.120Z,95.63
2019-02-07T22:42:34.881Z,96.65
2019-02-07T22:45:08.546Z,96.83
2019-02-07T22:47:40.137Z,97.78
2019-02-07T22:50:17.513Z,98.21
2019-02-07T22:52:56.524Z,98.20
2019-02-07T22:55:22.727Z,98.45
2019-02-07T22:57:54.424Z,98.49
2019-02-07T23:01:29.235Z,98.35
2019-02-07T23:04:03.418Z,98.24
2019-02-07T23:06:34.779Z,98.30
2019-02-07T23:09:10.244Z,98.17
2019-02-07T23:11:42.247Z,98.13
2019-02-07T23:14:14.471Z,98.55
2019-02-07T23:16:46.216Z,98.93
2019-02-07T23:19:18.173Z,99.83
2019-02-07T23:21:49.526Z,100.00
2019-02-07T23:24:21.429Z,100.00
2019-02-07T23:26:53.509Z,100.00
2019-02-07T23:29:25.555Z,100.00
2019-02-07T23:31:57.520Z,100.00
2019-02-07T23:34:30.554Z,100.00
2019-02-07T23:37:02.668Z,100.00
2019-02-07T23:39:34.560Z,100.00
2019-02-07T23:42:06.313Z,100.00
2019-02-07T23:44:38.454Z,100.00
2019-02-07T23:47:10.234Z,100.00
2019-02-07T23:49:42.151Z,100.00
2019-02-07T23:52:14.286Z,100.00
2019-02-07T23:54:46.061Z,100.00
2019-02-07T23:57:18.087Z,100.00
2019-02-07T23:59:49.981Z,100.00
